To NAV CANADA Home Page Login to a new session Search on AWWS site Feedback and Comments Disclaimer Vers la page française équivalente Tips FAQ What's new on the site To the Forecasts and Observations / NOTAM section To "File a Flight Plan" website Publications and other links Update of the User's profile FIC Telephone Numbers My Weather Data Folder Route Weather Data Regional Weather Data Local Weather Data To the Forecasts and Observations / NOTAM section
Request Generated 12/04/2016 at 22:22:56 UTC . Weather information available at that time is displayed.

METAR/TAF

RANKIN INLET/NU    

METAR CYRT 042200Z 16007KT 15SM OVC015 M04/M07 A2990 RMK SC8 SLP131=
METAR CYRT 042100Z 15009KT 15SM OVC016 M04/M07 A2991 RMK SC8 SLP132=
METAR CYRT 042000Z 15006KT 15SM OVC015 M05/M07 A2991 RMK SC8 SLP134=

TAF CYRT 041738Z 0418/0506 VRB03KT P6SM SCT012 OVC025 TEMPO 0418/0506
5SM -SN BR BKN015 OVC025
BECMG 0420/0422 05010KT
RMK NXT FCST BY 050000Z=
Your time UTC time
Weather data provided by Environment Canada and NAV CANADA